Perimeter SW4 at Cross Lake on Jan 31st 2014, runway excursion on landing

Last Update: February 10, 2014 / 22:26:48 GMT/Zulu time

Bookmark this article
Incident Facts

Date of incident
Jan 31, 2014

Classification
Incident

Flight number
4B-115

Aircraft Registration
C-FJTS

ICAO Type Designator
SW4

A Perimeter Aviation Swearingen SA-227-AC Metro III, registration C-FJTS performing flight 4B-115 from Winnipeg,MB to Cross Lake,MB (Canada) with 12 people on board, landed on Cross Lake's runway 23. During the roll out the aircraft veered to the left and came to a stop about 15 feet off the left edge of the runway. The right hand propeller as well as the left hand landing gear struck runway lights.

The Canadian TSB reported that the aircraft reportedly began to veer left after applying reverse and brakes.



No weather data are available for Cross Lake, the next weather station at Norway House Airport,MB, 40nm south of Cross Lake, reported:
CYNE 010000Z AUTO 24003KT 9SM -SN SCT029 M21/M23 A2973 RMK SLP094
CYNE 312331Z AUTO 22004KT 9SM BKN027 M20/M22 A2972 RMK SLP091
CYNE 312300Z AUTO 22004KT 8SM -SN OVC029 M19/M22 A2971 RMK SLP087
CYNE 312207Z AUTO 22005KT 5SM -SN OVC025 M19/M22 A2969 RMK SLP081
CYNE 312222Z AUTO 22005KT 6SM -SN OVC027 M19/M22 A2970 RMK SLP083
CYNE 312200Z AUTO 22006KT 6SM -SN OVC025 M19/M22 A2969 RMK SLP080
CYNE 312131Z AUTO 22005KT 9SM -SN OVC023 M19/M22 A2968 RMK SLP076
CYNE 312110Z AUTO 22007KT 9SM BKN023 M19/M22 A2967 RMK SLP073
CYNE 312145Z AUTO 23005KT 7SM -SN OVC025 M19/M22 A2968 RMK SLP078
CYNE 312100Z AUTO 22007KT 9SM CLR M19/M22 A2967 RMK SLP073
CYNE 312005Z AUTO 21008KT 8SM -SN FEW032 BKN065 M19/M22 A2965 RMK SLP068
CYNE 312016Z AUTO 20007KT 9SM FEW032 M19/M22 A2965 RMK SLP068
CYNE 312000Z AUTO 22007KT 8SM FEW032 BKN065 M19/M22 A2965 RMK SLP068
CYNE 311935Z AUTO 22006KT 7SM FEW030 OVC065 M19/M23 A2965 RMK SLP068
CYNE 311936Z AUTO 23006KT 7SM -SN FEW028 OVC065 M19/M22 A2965 RMK SLP067
CYNE 311953Z AUTO 23007KT 8SM SCT032 BKN065 M19/M22 A2965 RMK SLP069
CYNE 311900Z AUTO 23006KT 8SM -SN OVC065 M19/M22 A2965 RMK SLP067
CYNE 311843Z AUTO 23005KT 190V270 9SM OVC070 M19/M23 A2965 RMK SLP066
CYNE 311822Z AUTO 23006KT 210V290 8SM -SN OVC070 M19/M23 A2964 RMK SLP065
CYNE 311845Z AUTO 22007KT 190V260 9SM -SN OVC070 M19/M23 A2965 RMK SLP066
CYNE 311800Z AUTO 23008KT 220V280 9SM FEW040 OVC070 M19/M23 A2964 RMK SLP064
Aircraft Registration Data New!
Registration mark
C-FJTS
Country of Registration
Canada
Date of Registration
KggqchldlfjAbAqnc Subscribe to unlock
Certification Basis
GinmnqlilqpebAefdbjllqikAgghqhmdi pkpqmflnhdkg Subscribe to unlock
TCDS Ident. No.
Manufacturer
Fairchild
Aircraft Model / Type
SA227-AC
ICAO Aircraft Type
SW4
Year of Manufacture
Serial Number
Aircraft Address / Mode S Code (HEX)
Maximum Take off Mass (MTOM) [kg]
Engine Count
Engine Type
Main Owner
Gmhgfipl ncAinjgnfg gnnkjnlfnebqblnf p qijn cfgqmcpcjAqnbk lmpd lgifckenkhpgblflmhihAjfqAgbbmqjAgpAhjpejkbhlnfnjijbdnhebjmhiiqdcmkimifqhqcglhqjfqlp bkAdmpbibAhqnfAm pAp Subscribe to unlock

Aircraft registration data reproduced and distributed with the permission of the Government of Canada.

Incident Facts

Date of incident
Jan 31, 2014

Classification
Incident

Flight number
4B-115

Aircraft Registration
C-FJTS

ICAO Type Designator
SW4

This article is published under license from Avherald.com. © of text by Avherald.com.
Article source

You can read 4 more free articles without a subscription.

Subscribe now and continue reading without any limits!

Are you a subscriber?
Login
Subscribe

Read unlimited articles and receive our daily update briefing. Gain better insights into what is happening in commercial aviation safety.

Free newsletter

Want to know more and stay ahead? Get our free weekly newsletter and join 4944 existing subscribers.

By subscribing, you accept our terms and conditions and confirm that you've read our privacy policy.

Send tip

Support AeroInside by sending a small tip amount.

Newest articles

Subscribe today

Are you researching aviation incidents? Get access to AeroInside Insights, unlimited read access and receive the daily newsletter.

Pick your plan and subscribe

Partner

Blockaviation logo

A new way to document and demonstrate airworthiness compliance and aircraft value. Find out more.

Virtual Speech logo

ELITE Simulation Solutions is a leading global provider of Flight Simulation Training Devices, IFR training software as well as flight controls and related services. Find out more.

Get updates

Never miss an article from AeroInside. Subscribe to our free weekly newsletter and join 4944 existing subscribers.

By subscribing, you accept our terms and conditions and that you've read our privacy policy.

AeroInside Blog
Popular aircraft
Airbus A320
Boeing 737-800
Boeing 737-800 MAX
Popular airlines
American Airlines
United
Delta
Air Canada
Lufthansa
British Airways